createdAt,value
2022-11-05T00:01:06.578Z,10.63
2022-11-05T00:05:30.481Z,10.93
2022-11-05T00:09:33.621Z,10.00
2022-11-05T00:13:53.771Z,9.32
2022-11-05T00:17:55.414Z,9.10
2022-11-05T00:22:15.666Z,9.23
2022-11-05T00:26:17.289Z,9.68
2022-11-05T00:30:24.793Z,10.20
2022-11-05T00:34:26.482Z,8.85
2022-11-05T00:38:30.405Z,9.10
2022-11-05T00:42:50.754Z,9.05
2022-11-05T00:47:15.321Z,9.45
2022-11-05T00:51:17.041Z,9.40
2022-11-05T00:55:18.664Z,9.38
2022-11-05T00:59:20.262Z,9.60
2022-11-05T01:03:25.791Z,9.27
2022-11-05T01:07:27.383Z,9.13
2022-11-05T01:11:36.811Z,9.25
2022-11-05T01:15:38.726Z,9.18
2022-11-05T01:19:40.426Z,9.43
2022-11-05T01:23:42.152Z,9.77
2022-11-05T01:27:43.802Z,7.95
2022-11-05T01:31:45.451Z,8.15
2022-11-05T01:35:47.097Z,8.07
2022-11-05T01:39:48.685Z,8.70
2022-11-05T01:43:55.110Z,8.50
2022-11-05T01:48:21.205Z,9.20
2022-11-05T01:52:24.068Z,9.40
2022-11-05T01:56:51.520Z,8.90
2022-11-05T02:00:55.090Z,9.55
2022-11-05T02:05:00.893Z,9.55
2022-11-05T02:09:02.480Z,9.10
2022-11-05T02:13:04.208Z,9.30
2022-11-05T02:17:16.135Z,9.05
2022-11-05T02:21:55.480Z,8.95
2022-11-05T02:26:35.181Z,8.90
2022-11-05T02:30:56.676Z,9.13
2022-11-05T02:35:18.249Z,8.80
2022-11-05T02:39:27.867Z,8.45
2022-11-05T02:43:45.717Z,8.30
2022-11-05T02:48:13.238Z,8.30
2022-11-05T02:52:24.005Z,8.15
2022-11-05T02:56:35.326Z,8.20
2022-11-05T03:00:37.202Z,8.43
2022-11-05T03:04:39.080Z,9.20
2022-11-05T03:08:52.697Z,8.77
2022-11-05T03:13:22.252Z,11.05
2022-11-05T03:17:50.186Z,9.55
2022-11-05T03:26:20.761Z,9.32
2022-11-05T03:30:23.660Z,9.05
2022-11-05T03:34:32.211Z,8.50
2022-11-05T03:38:41.693Z,9.75
2022-11-05T03:42:49.174Z,8.70
2022-11-05T03:46:52.497Z,8.55
2022-11-05T03:51:05.341Z,8.98
2022-11-05T03:55:07.321Z,8.88
2022-11-05T03:59:09.973Z,9.10
2022-11-05T04:03:11.837Z,9.38
2022-11-05T04:07:34.095Z,9.15
2022-11-05T04:11:54.617Z,10.93
2022-11-05T04:16:15.416Z,10.88
2022-11-05T04:20:36.107Z,10.45
2022-11-05T04:24:37.726Z,10.48
2022-11-05T04:28:58.006Z,10.02
2022-11-05T04:33:01.716Z,9.68
2022-11-05T04:37:03.335Z,9.57
2022-11-05T04:41:15.624Z,8.52
2022-11-05T04:45:17.346Z,9.13
2022-11-05T04:49:19.010Z,9.40
2022-11-05T04:53:20.641Z,10.07
2022-11-05T04:57:22.244Z,9.38
2022-11-05T05:01:25.299Z,10.52
2022-11-05T05:05:27.162Z,11.02
2022-11-05T05:09:28.781Z,10.32
2022-11-05T05:13:30.487Z,11.43
2022-11-05T05:17:32.177Z,11.85
2022-11-05T05:21:40.266Z,10.57
2022-11-05T05:25:41.931Z,9.68
2022-11-05T05:29:43.607Z,10.13
2022-11-05T05:33:45.236Z,8.90
2022-11-05T05:37:46.986Z,8.18
2022-11-05T05:41:48.643Z,8.73
2022-11-05T05:45:50.861Z,9.02
2022-11-05T05:49:52.549Z,9.27
2022-11-05T05:53:54.745Z,9.48
2022-11-05T05:57:56.384Z,9.48
2022-11-05T06:01:58.216Z,8.77
2022-11-05T06:06:12.937Z,9.30
2022-11-05T06:10:14.651Z,8.30
2022-11-05T06:14:16.382Z,9.13
2022-11-05T06:18:18.165Z,8.23
2022-11-05T06:22:19.757Z,9.02
2022-11-05T06:26:21.438Z,8.45
2022-11-05T06:30:23.982Z,7.85
2022-11-05T06:34:25.605Z,8.60
2022-11-05T06:38:29.121Z,8.90
2022-11-05T06:42:30.806Z,9.45
2022-11-05T06:46:32.449Z,8.82
2022-11-05T06:50:34.076Z,9.15
2022-11-05T06:54:35.744Z,9.52
2022-11-05T06:58:37.501Z,9.00
2022-11-05T07:02:39.117Z,9.30
2022-11-05T07:06:40.781Z,9.80
2022-11-05T07:10:42.449Z,9.80
2022-11-05T07:14:44.068Z,8.82
2022-11-05T07:18:45.673Z,10.00
2022-11-05T07:22:47.333Z,10.00
2022-11-05T07:26:49.495Z,9.93
2022-11-05T07:30:51.321Z,10.50
2022-11-05T07:34:52.968Z,10.35
2022-11-05T07:38:59.955Z,10.57
2022-11-05T07:43:02.436Z,9.90
2022-11-05T07:47:04.107Z,11.15
2022-11-05T07:51:05.777Z,10.98
2022-11-05T07:55:07.992Z,11.30
2022-11-05T07:59:09.609Z,10.98
2022-11-05T08:03:17.346Z,17.25
2022-11-05T08:07:19.338Z,15.93
2022-11-05T08:11:20.939Z,17.37
2022-11-05T08:15:23.650Z,17.48
2022-11-05T08:19:25.300Z,18.08
2022-11-05T08:23:28.028Z,20.62
2022-11-05T08:27:29.660Z,18.95
2022-11-05T08:31:31.845Z,18.73
2022-11-05T08:35:35.013Z,18.48
2022-11-05T08:39:36.654Z,18.00
2022-11-05T08:43:38.281Z,16.67
2022-11-05T08:47:39.946Z,15.38
2022-11-05T08:51:43.336Z,15.82
2022-11-05T08:55:47.435Z,14.77
2022-11-05T08:59:49.066Z,13.60
2022-11-05T09:03:51.921Z,13.55
2022-11-05T09:07:59.434Z,13.80
2022-11-05T09:12:12.382Z,14.20
2022-11-05T09:16:20.737Z,14.23
2022-11-05T09:20:22.821Z,14.60
2022-11-05T09:24:24.484Z,13.95
2022-11-05T09:28:26.286Z,14.32
2022-11-05T09:32:27.949Z,12.77
2022-11-05T09:36:29.578Z,11.45
2022-11-05T09:40:35.797Z,11.10
2022-11-05T09:44:41.377Z,10.85
2022-11-05T09:48:47.876Z,11.32
2022-11-05T09:52:49.860Z,11.47
2022-11-05T09:56:53.650Z,11.27
2022-11-05T10:00:56.260Z,10.10
2022-11-05T10:05:09.402Z,10.80
2022-11-05T10:09:26.465Z,11.15
2022-11-05T10:13:42.251Z,10.93
2022-11-05T10:17:53.691Z,11.12
2022-11-05T10:22:16.669Z,10.10
2022-11-05T10:26:23.787Z,9.90
2022-11-05T10:30:25.591Z,9.13
2022-11-05T10:34:33.554Z,7.95
2022-11-05T10:38:35.365Z,7.55
2022-11-05T10:43:08.372Z,8.52
2022-11-05T10:47:31.251Z,7.53
2022-11-05T10:51:34.077Z,6.78
2022-11-05T10:55:41.028Z,6.90
2022-11-05T10:59:42.640Z,6.87
2022-11-05T11:03:51.010Z,5.80
2022-11-05T11:07:57.524Z,5.97
2022-11-05T11:12:03.926Z,6.07
2022-11-05T11:16:23.491Z,6.60
2022-11-05T11:20:32.406Z,5.90
2022-11-05T11:24:45.676Z,6.07
2022-11-05T11:29:14.037Z,5.22
2022-11-05T11:33:21.663Z,5.75
2022-11-05T11:37:30.125Z,4.82
2022-11-05T11:41:36.409Z,4.12
2022-11-05T11:45:46.678Z,3.95
2022-11-05T11:49:56.957Z,3.83
2022-11-05T11:54:00.788Z,3.65
2022-11-05T11:58:07.862Z,3.60
2022-11-05T12:02:23.846Z,4.30
2022-11-05T12:07:03.648Z,4.12
2022-11-05T12:11:27.899Z,3.40
2022-11-05T12:15:41.214Z,3.87
2022-11-05T12:20:09.661Z,2.97
2022-11-05T12:24:45.033Z,2.90
2022-11-05T12:29:18.918Z,3.15
2022-11-05T12:33:31.815Z,3.47
2022-11-05T12:37:55.339Z,2.67
2022-11-05T12:42:22.336Z,3.17
2022-11-05T12:46:45.196Z,3.20
2022-11-05T12:51:02.164Z,3.15
2022-11-05T12:55:16.622Z,3.65
2022-11-05T12:59:33.588Z,3.30
2022-11-05T13:03:52.135Z,3.22
2022-11-05T13:08:07.516Z,4.03
2022-11-05T13:12:14.806Z,3.40
2022-11-05T13:20:40.068Z,3.05
2022-11-05T13:24:55.296Z,3.00
2022-11-05T13:29:15.685Z,2.87
2022-11-05T13:33:17.272Z,2.75
2022-11-05T13:37:44.425Z,3.00
2022-11-05T13:42:13.295Z,3.23
2022-11-05T13:46:49.805Z,2.90
2022-11-05T13:51:07.320Z,2.53
2022-11-05T13:55:26.885Z,2.58
2022-11-05T13:59:57.120Z,3.15
2022-11-05T14:03:58.815Z,2.78
2022-11-05T14:08:15.494Z,2.53
2022-11-05T14:12:28.135Z,2.37
2022-11-05T14:16:49.393Z,2.50
2022-11-05T14:20:59.913Z,2.42
2022-11-05T14:25:22.853Z,2.50
2022-11-05T14:29:25.044Z,2.78
2022-11-05T14:33:26.612Z,3.15
2022-11-05T14:37:32.101Z,2.92
2022-11-05T14:42:02.387Z,2.95
2022-11-05T14:46:08.948Z,2.50
2022-11-05T14:50:19.509Z,2.53
2022-11-05T14:54:39.809Z,2.03
2022-11-05T14:58:43.578Z,1.98
2022-11-05T15:02:57.601Z,1.77
2022-11-05T15:07:01.961Z,1.75
2022-11-05T15:11:15.904Z,1.92
2022-11-05T15:15:27.510Z,1.90
2022-11-05T15:19:30.628Z,1.80
2022-11-05T15:23:40.204Z,2.00
2022-11-05T15:28:01.521Z,1.52
2022-11-05T15:32:03.272Z,1.60
2022-11-05T15:36:29.239Z,1.30
2022-11-05T15:40:32.938Z,1.42
2022-11-05T15:44:40.445Z,1.33
2022-11-05T15:48:50.781Z,1.10
2022-11-05T15:52:54.566Z,1.87
2022-11-05T15:56:58.335Z,1.10
2022-11-05T16:00:59.977Z,1.50
2022-11-05T16:05:09.225Z,1.65
2022-11-05T16:09:31.897Z,1.55
2022-11-05T16:13:39.147Z,2.00
2022-11-05T16:21:55.030Z,4.93
2022-11-05T16:25:56.641Z,2.10
2022-11-05T16:29:58.399Z,1.77
2022-11-05T16:34:00.118Z,2.25
2022-11-05T16:38:02.806Z,2.00
2022-11-05T16:42:22.672Z,2.30
2022-11-05T16:46:26.597Z,1.67
2022-11-05T16:50:32.125Z,1.90
2022-11-05T16:54:33.844Z,2.00
2022-11-05T16:58:35.533Z,1.77
2022-11-05T17:02:37.402Z,1.48
2022-11-05T17:06:39.242Z,1.50
2022-11-05T17:10:40.864Z,1.60
2022-11-05T17:14:42.501Z,1.60
2022-11-05T17:18:44.563Z,1.80
2022-11-05T17:22:46.196Z,2.12
2022-11-05T17:26:47.881Z,2.28
2022-11-05T17:30:52.888Z,1.70
2022-11-05T17:34:54.913Z,2.00
2022-11-05T17:38:56.536Z,1.60
2022-11-05T17:42:58.532Z,1.70
2022-11-05T17:47:00.185Z,1.48
2022-11-05T17:51:02.328Z,1.50
2022-11-05T17:55:06.171Z,2.20
2022-11-05T17:59:07.879Z,1.92
2022-11-05T18:03:10.827Z,1.70
2022-11-05T18:07:14.826Z,1.90
2022-11-05T18:11:16.566Z,1.58
2022-11-05T18:15:18.369Z,1.80
2022-11-05T18:19:19.955Z,1.70
2022-11-05T18:23:21.606Z,2.17
2022-11-05T18:27:27.355Z,1.90
2022-11-05T18:31:29.062Z,2.15
2022-11-05T18:35:30.777Z,2.08
2022-11-05T18:39:32.433Z,2.03
2022-11-05T18:43:34.128Z,1.90
2022-11-05T18:47:35.847Z,2.67
2022-11-05T18:51:37.633Z,2.42
2022-11-05T18:55:40.715Z,2.30
2022-11-05T18:59:46.476Z,2.22
2022-11-05T19:03:51.082Z,2.55
2022-11-05T19:07:52.902Z,2.17
2022-11-05T19:11:56.932Z,2.97
2022-11-05T19:15:58.521Z,2.70
2022-11-05T19:20:00.661Z,2.97
2022-11-05T19:24:03.129Z,3.10
2022-11-05T19:28:05.063Z,3.53
2022-11-05T19:32:06.837Z,3.50
2022-11-05T19:36:09.451Z,3.20
2022-11-05T19:40:11.900Z,3.50
2022-11-05T19:44:13.496Z,3.12
2022-11-05T19:48:19.355Z,3.72
2022-11-05T19:52:21.811Z,3.55
2022-11-05T19:56:26.135Z,4.05
2022-11-05T20:00:27.760Z,3.62
2022-11-05T20:04:29.522Z,3.72
2022-11-05T20:08:31.176Z,3.85
2022-11-05T20:12:33.106Z,3.47
2022-11-05T20:16:40.223Z,3.50
2022-11-05T20:20:45.300Z,3.60
2022-11-05T20:24:46.902Z,3.30
2022-11-05T20:28:48.558Z,4.05
2022-11-05T20:32:57.599Z,3.85
2022-11-05T20:36:59.600Z,4.28
2022-11-05T20:41:09.765Z,3.58
2022-11-05T20:45:11.772Z,4.65
2022-11-05T20:49:13.441Z,4.05
2022-11-05T20:53:15.078Z,3.70
2022-11-05T20:57:16.721Z,3.37
2022-11-05T21:01:19.077Z,4.47
2022-11-05T21:05:20.865Z,3.50
2022-11-05T21:09:22.554Z,3.85
2022-11-05T21:13:24.949Z,4.25
2022-11-05T21:17:26.563Z,4.97
2022-11-05T21:21:28.352Z,4.15
2022-11-05T21:25:29.978Z,4.12
2022-11-05T21:29:31.589Z,4.60
2022-11-05T21:33:33.618Z,4.40
2022-11-05T21:37:35.223Z,5.03
2022-11-05T21:41:36.965Z,4.95
2022-11-05T21:45:40.315Z,5.25
2022-11-05T21:49:41.947Z,4.93
2022-11-05T21:54:02.154Z,4.72
2022-11-05T21:58:33.773Z,5.28
2022-11-05T22:02:35.894Z,4.97
2022-11-05T22:06:37.607Z,4.85
2022-11-05T22:10:39.344Z,5.30
2022-11-05T22:14:41.424Z,5.10
2022-11-05T22:18:43.036Z,4.60
2022-11-05T22:22:45.439Z,5.72
2022-11-05T22:26:47.343Z,5.78
2022-11-05T22:30:48.946Z,5.90
2022-11-05T22:34:50.618Z,5.80
2022-11-05T22:38:52.314Z,6.30
2022-11-05T22:42:53.930Z,6.07
2022-11-05T22:46:56.014Z,6.87
2022-11-05T22:51:03.853Z,7.25
2022-11-05T22:55:06.116Z,7.50
2022-11-05T22:59:12.315Z,6.78
2022-11-05T23:03:14.150Z,7.22
2022-11-05T23:07:34.597Z,7.55
2022-11-05T23:11:39.246Z,7.12
2022-11-05T23:15:59.499Z,6.93
2022-11-05T23:20:30.599Z,6.82
2022-11-05T23:24:32.213Z,6.18
2022-11-05T23:28:33.809Z,5.93
2022-11-05T23:32:35.985Z,7.00
2022-11-05T23:36:56.162Z,7.10
2022-11-05T23:41:20.750Z,7.15
2022-11-05T23:45:41.139Z,7.45
2022-11-05T23:49:42.771Z,7.35
2022-11-05T23:53:44.379Z,6.93
2022-11-05T23:57:46.137Z,6.68
